Tuscarora, New York
Current Conditions -  °F | °C
As of 10:54 PM on Monday 20 Oct 2014 (Local Time) from KDSV Reporting Station
Overcast Overcast  
Wind Chill: 10°   Ceiling: 4900
Heat Index: 10°   Visibility: 10mi
Dew Point:   Wind: 3mph
Humidity: 86%   Direction: 180°S
Pressure: 29.86"   Gusts: NA
Location:  42.6879°N, 77.8772°W
Report Text: KDSV 210254Z AUTO 18003KT 10SM BKN049 OVC055 10/08 A2986 RMK AO2 RAE02 SLP123 P0000 60001 T01000078 51004
Loading
Personal Weather Stations






























Interactive Weather Map
Tropical Storm Tracking
New forecast layout! Learn more

10-Day Weather Forecast

Advertisements
Track Severe Weather on mobile